sensor_id;sensor_type;location;lat;lon;timestamp;pressure;altitude;pressure_sealevel;temperature;humidity
80640;BME280;69992;60.170;24.692;2023-09-12T00:02:05;101150.74;;;9.68;31.34
80640;BME280;69992;60.170;24.692;2023-09-12T00:04:31;101151.13;;;9.69;31.36
80640;BME280;69992;60.170;24.692;2023-09-12T00:06:56;101146.60;;;10.75;31.34
80640;BME280;69992;60.170;24.692;2023-09-12T00:09:21;101147.05;;;8.88;31.34
80640;BME280;69992;60.170;24.692;2023-09-12T00:11:47;101151.10;;;9.00;31.31
80640;BME280;69992;60.170;24.692;2023-09-12T00:14:15;101151.51;;;10.99;31.33
80640;BME280;69992;60.170;24.692;2023-09-12T00:16:38;101152.72;;;9.07;31.35
80640;BME280;69992;60.170;24.692;2023-09-12T00:19:03;101158.32;;;10.16;31.33
80640;BME280;69992;60.170;24.692;2023-09-12T00:21:28;101157.15;;;11.21;31.34
80640;BME280;69992;60.170;24.692;2023-09-12T00:23:54;101155.29;;;10.36;31.30
80640;BME280;69992;60.170;24.692;2023-09-12T00:26:19;101157.16;;;9.52;31.28
80640;BME280;69992;60.170;24.692;2023-09-12T00:28:49;101158.83;;;9.55;31.27
80640;BME280;69992;60.170;24.692;2023-09-12T00:31:09;101165.36;;;11.48;31.30
80640;BME280;69992;60.170;24.692;2023-09-12T00:33:35;101167.63;;;10.55;31.29
80640;BME280;69992;60.170;24.692;2023-09-12T00:36:01;101169.65;;;9.70;31.27
80640;BME280;69992;60.170;24.692;2023-09-12T00:38:26;101164.95;;;11.70;31.27
80640;BME280;69992;60.170;24.692;2023-09-12T00:40:52;101161.80;;;10.82;31.26
80640;BME280;69992;60.170;24.692;2023-09-12T00:43:17;101161.81;;;9.91;31.27
80640;BME280;69992;60.170;24.692;2023-09-12T00:45:43;101162.08;;;10.00;31.28
80640;BME280;69992;60.170;24.692;2023-09-12T00:48:09;101165.74;;;10.08;31.29
80640;BME280;69992;60.170;24.692;2023-09-12T00:50:34;101163.77;;;10.20;31.28
80640;BME280;69992;60.170;24.692;2023-09-12T00:53:00;101164.83;;;11.31;31.24
80640;BME280;69992;60.170;24.692;2023-09-12T00:55:24;101169.32;;;10.44;31.23
80640;BME280;69992;60.170;24.692;2023-09-12T00:57:51;101166.94;;;10.51;31.23
80640;BME280;69992;60.170;24.692;2023-09-12T01:00:16;101168.04;;;10.53;31.23
80640;BME280;69992;60.170;24.692;2023-09-12T01:02:43;101165.03;;;10.57;31.24
80640;BME280;69992;60.170;24.692;2023-09-12T01:05:08;101165.48;;;10.60;31.24
80640;BME280;69992;60.170;24.692;2023-09-12T01:07:33;101162.59;;;10.62;31.25
80640;BME280;69992;60.170;24.692;2023-09-12T01:09:58;101165.58;;;10.64;31.26
80640;BME280;69992;60.170;24.692;2023-09-12T01:12:24;101167.16;;;9.70;31.28
80640;BME280;69992;60.170;24.692;2023-09-12T01:14:49;101168.45;;;11.72;31.27
80640;BME280;69992;60.170;24.692;2023-09-12T01:17:14;101168.94;;;10.79;31.27
80640;BME280;69992;60.170;24.692;2023-09-12T01:19:39;101164.32;;;10.88;31.27
80640;BME280;69992;60.170;24.692;2023-09-12T01:22:21;101163.13;;;10.94;31.26
80640;BME280;69992;60.170;24.692;2023-09-12T01:24:45;101160.35;;;11.03;31.25
80640;BME280;69992;60.170;24.692;2023-09-12T01:29:21;101153.90;;;11.26;31.18
80640;BME280;69992;60.170;24.692;2023-09-12T01:31:47;101152.61;;;11.25;31.21
80640;BME280;69992;60.170;24.692;2023-09-12T01:34:14;101150.89;;;11.24;31.23
80640;BME280;69992;60.170;24.692;2023-09-12T01:36:38;101148.01;;;11.21;31.26
80640;BME280;69992;60.170;24.692;2023-09-12T01:39:03;101145.46;;;11.23;31.27
80640;BME280;69992;60.170;24.692;2023-09-12T01:41:30;101147.10;;;11.27;31.28
80640;BME280;69992;60.170;24.692;2023-09-12T01:43:55;101144.54;;;11.34;31.28
80640;BME280;69992;60.170;24.692;2023-09-12T01:46:20;101143.07;;;10.40;31.28
80640;BME280;69992;60.170;24.692;2023-09-12T01:48:45;101143.06;;;11.40;31.30
80640;BME280;69992;60.170;24.692;2023-09-12T01:51:11;101146.65;;;11.42;31.30
80640;BME280;69992;60.170;24.692;2023-09-12T01:53:36;101145.57;;;11.39;31.33
80640;BME280;69992;60.170;24.692;2023-09-12T01:56:01;101148.81;;;11.43;31.33
80640;BME280;69992;60.170;24.692;2023-09-12T01:58:26;101145.04;;;10.50;31.33
80640;BME280;69992;60.170;24.692;2023-09-12T02:00:52;101143.59;;;11.56;31.29
80640;BME280;69992;60.170;24.692;2023-09-12T02:03:17;101143.25;;;9.61;31.31
80640;BME280;69992;60.170;24.692;2023-09-12T02:05:43;101143.34;;;11.59;31.33
80640;BME280;69992;60.170;24.692;2023-09-12T02:08:08;101137.06;;;11.63;31.32
80640;BME280;69992;60.170;24.692;2023-09-12T02:10:33;101134.73;;;10.67;31.35
80640;BME280;69992;60.170;24.692;2023-09-12T02:12:59;101133.20;;;9.74;31.35
80640;BME280;69992;60.170;24.692;2023-09-12T02:15:25;101135.39;;;11.78;31.33
80640;BME280;69992;60.170;24.692;2023-09-12T02:17:49;101140.33;;;10.82;31.33
80640;BME280;69992;60.170;24.692;2023-09-12T02:20:16;101141.71;;;11.76;31.36
80640;BME280;69992;60.170;24.692;2023-09-12T02:22:41;101142.07;;;11.75;31.39
80640;BME280;69992;60.170;24.692;2023-09-12T02:25:07;101140.98;;;11.81;31.40
80640;BME280;69992;60.170;24.692;2023-09-12T02:27:33;101138.14;;;11.88;31.38
80640;BME280;69992;60.170;24.692;2023-09-12T02:29:58;101133.17;;;10.91;31.40
80640;BME280;69992;60.170;24.692;2023-09-12T02:32:24;101131.21;;;10.94;31.40
80640;BME280;69992;60.170;24.692;2023-09-12T02:34:50;101128.79;;;10.00;31.40
80640;BME280;69992;60.170;24.692;2023-09-12T02:37:16;101131.16;;;10.07;31.40
80640;BME280;69992;60.170;24.692;2023-09-12T02:39:41;101125.90;;;12.09;31.40
80640;BME280;69992;60.170;24.692;2023-09-12T02:42:07;101126.28;;;11.17;31.40
80640;BME280;69992;60.170;24.692;2023-09-12T02:44:33;101121.04;;;11.22;31.39
80640;BME280;69992;60.170;24.692;2023-09-12T02:46:58;101119.50;;;11.18;31.43
80640;BME280;69992;60.170;24.692;2023-09-12T02:49:23;101117.89;;;11.20;31.45
80640;BME280;69992;60.170;24.692;2023-09-12T02:51:48;101112.32;;;12.26;31.43
80640;BME280;69992;60.170;24.692;2023-09-12T02:54:14;101109.53;;;11.37;31.42
80640;BME280;69992;60.170;24.692;2023-09-12T02:56:38;101108.65;;;11.41;31.44
80640;BME280;69992;60.170;24.692;2023-09-12T02:59:04;101105.50;;;11.48;31.45
80640;BME280;69992;60.170;24.692;2023-09-12T03:01:29;101104.75;;;10.60;31.42
80640;BME280;69992;60.170;24.692;2023-09-12T03:03:55;101102.04;;;11.60;31.43
80640;BME280;69992;60.170;24.692;2023-09-12T03:06:21;101102.55;;;12.56;31.46
80640;BME280;69992;60.170;24.692;2023-09-12T03:08:47;101103.79;;;10.59;31.49
80640;BME280;69992;60.170;24.692;2023-09-12T03:11:12;101102.60;;;11.62;31.47
80640;BME280;69992;60.170;24.692;2023-09-12T03:13:40;101103.42;;;11.67;31.47
80640;BME280;69992;60.170;24.692;2023-09-12T03:16:04;101105.29;;;11.71;31.47
80640;BME280;69992;60.170;24.692;2023-09-12T03:18:29;101104.76;;;11.73;31.47
80640;BME280;69992;60.170;24.692;2023-09-12T03:20:55;101104.09;;;11.73;31.48
80640;BME280;69992;60.170;24.692;2023-09-12T03:23:21;101097.78;;;11.80;31.48
80640;BME280;69992;60.170;24.692;2023-09-12T03:25:46;101097.60;;;11.84;31.48
80640;BME280;69992;60.170;24.692;2023-09-12T03:28:11;101098.41;;;11.83;31.48
80640;BME280;69992;60.170;24.692;2023-09-12T03:30:38;101101.15;;;12.75;31.52
80640;BME280;69992;60.170;24.692;2023-09-12T03:33:02;101105.20;;;10.92;31.48
80640;BME280;69992;60.170;24.692;2023-09-12T03:35:28;101107.84;;;11.78;31.52
80640;BME280;69992;60.170;24.692;2023-09-12T03:37:53;101109.20;;;12.70;31.57
80640;BME280;69992;60.170;24.692;2023-09-12T03:40:19;101106.57;;;11.75;31.58
80640;BME280;69992;60.170;24.692;2023-09-12T03:42:44;101105.21;;;12.79;31.57
80640;BME280;69992;60.170;24.692;2023-09-12T03:45:10;101108.81;;;10.84;31.58
80640;BME280;69992;60.170;24.692;2023-09-12T03:47:35;101112.83;;;11.84;31.58
80640;BME280;69992;60.170;24.692;2023-09-12T03:50:00;101110.47;;;11.81;31.60
80640;BME280;69992;60.170;24.692;2023-09-12T03:52:25;101105.17;;;11.82;31.61
80640;BME280;69992;60.170;24.692;2023-09-12T03:54:51;101102.64;;;11.85;31.61
80640;BME280;69992;60.170;24.692;2023-09-12T03:57:16;101102.31;;;10.86;31.62
80640;BME280;69992;60.170;24.692;2023-09-12T03:59:42;101096.85;;;10.89;31.63
80640;BME280;69992;60.170;24.692;2023-09-12T04:02:08;101096.87;;;11.97;31.61
80640;BME280;69992;60.170;24.692;2023-09-12T04:04:33;101094.86;;;12.05;31.60
80640;BME280;69992;60.170;24.692;2023-09-12T04:06:58;101097.20;;;11.12;31.59
80640;BME280;69992;60.170;24.692;2023-09-12T04:09:24;101098.90;;;11.14;31.61
80640;BME280;69992;60.170;24.692;2023-09-12T04:11:49;101098.71;;;11.22;31.60
80640;BME280;69992;60.170;24.692;2023-09-12T04:14:15;101100.33;;;11.29;31.60
80640;BME280;69992;60.170;24.692;2023-09-12T04:16:40;101100.36;;;12.26;31.61
80640;BME280;69992;60.170;24.692;2023-09-12T04:19:06;101101.29;;;12.30;31.63
80640;BME280;69992;60.170;24.692;2023-09-12T04:21:31;101103.06;;;12.32;31.65
80640;BME280;69992;60.170;24.692;2023-09-12T04:23:57;101102.22;;;12.40;31.64
80640;BME280;69992;60.170;24.692;2023-09-12T04:26:22;101097.45;;;11.53;31.62
80640;BME280;69992;60.170;24.692;2023-09-12T04:28:48;101095.17;;;11.59;31.59
80640;BME280;69992;60.170;24.692;2023-09-12T04:31:18;101094.04;;;11.58;31.62
80640;BME280;69992;60.170;24.692;2023-09-12T04:33:39;101096.41;;;12.57;31.63
80640;BME280;69992;60.170;24.692;2023-09-12T04:36:05;101098.84;;;13.56;31.65
80640;BME280;69992;60.170;24.692;2023-09-12T04:38:30;101095.15;;;12.55;31.66
80640;BME280;69992;60.170;24.692;2023-09-12T04:40:56;101092.94;;;12.49;31.70
80640;BME280;69992;60.170;24.692;2023-09-12T04:43:21;101093.27;;;11.58;31.68
80640;BME280;69992;60.170;24.692;2023-09-12T04:45:47;101096.43;;;13.54;31.68
80640;BME280;69992;60.170;24.692;2023-09-12T04:48:12;101099.88;;;11.63;31.69
80640;BME280;69992;60.170;24.692;2023-09-12T04:50:40;101103.13;;;12.68;31.70
80640;BME280;69992;60.170;24.692;2023-09-12T04:53:03;101108.44;;;12.76;31.69
80640;BME280;69992;60.170;24.692;2023-09-12T04:55:28;101108.39;;;12.77;31.71
80640;BME280;69992;60.170;24.692;2023-09-12T04:57:54;101106.04;;;11.83;31.71
80640;BME280;69992;60.170;24.692;2023-09-12T05:00:20;101103.59;;;10.95;31.70
80640;BME280;69992;60.170;24.692;2023-09-12T05:02:46;101101.35;;;12.00;31.68
80640;BME280;69992;60.170;24.692;2023-09-12T05:05:11;101099.00;;;12.06;31.68
80640;BME280;69992;60.170;24.692;2023-09-12T05:07:37;101094.10;;;12.18;31.65
80640;BME280;69992;60.170;24.692;2023-09-12T05:10:03;101094.63;;;13.21;31.68
80640;BME280;69992;60.170;24.692;2023-09-12T05:12:28;101095.25;;;12.28;31.68
80640;BME280;69992;60.170;24.692;2023-09-12T05:14:53;101099.07;;;12.34;31.69
80640;BME280;69992;60.170;24.692;2023-09-12T05:17:19;101102.20;;;10.41;31.69
80640;BME280;69992;60.170;24.692;2023-09-12T05:19:45;101104.52;;;13.38;31.69
80640;BME280;69992;60.170;24.692;2023-09-12T05:22:10;101108.48;;;12.44;31.71
80640;BME280;69992;60.170;24.692;2023-09-12T05:24:36;101111.35;;;12.51;31.72
80640;BME280;69992;60.170;24.692;2023-09-12T05:27:01;101112.44;;;12.63;31.71
80640;BME280;69992;60.170;24.692;2023-09-12T05:29:26;101111.25;;;12.75;31.69
80640;BME280;69992;60.170;24.692;2023-09-12T05:31:52;101112.58;;;12.85;31.68
80640;BME280;69992;60.170;24.692;2023-09-12T05:34:17;101111.97;;;12.95;31.67
80640;BME280;69992;60.170;24.692;2023-09-12T05:36:42;101112.14;;;13.99;31.69
80640;BME280;69992;60.170;24.692;2023-09-12T05:39:07;101112.92;;;13.08;31.69
80640;BME280;69992;60.170;24.692;2023-09-12T05:41:33;101116.73;;;13.15;31.72
80640;BME280;69992;60.170;24.692;2023-09-12T05:43:58;101115.86;;;13.21;31.72
80640;BME280;69992;60.170;24.692;2023-09-12T05:46:24;101112.50;;;12.36;31.70
80640;BME280;69992;60.170;24.692;2023-09-12T05:48:49;101111.63;;;13.46;31.67
80640;BME280;69992;60.170;24.692;2023-09-12T05:51:15;101115.92;;;12.53;31.70
80640;BME280;69992;60.170;24.692;2023-09-12T05:53:40;101117.79;;;12.62;31.71
80640;BME280;69992;60.170;24.692;2023-09-12T05:56:06;101119.66;;;13.67;31.72
80640;BME280;69992;60.170;24.692;2023-09-12T05:58:31;101120.04;;;11.77;31.74
80640;BME280;69992;60.170;24.692;2023-09-12T06:00:56;101119.78;;;11.90;31.71
80640;BME280;69992;60.170;24.692;2023-09-12T06:03:21;101121.98;;;12.89;31.73
80640;BME280;69992;60.170;24.692;2023-09-12T06:05:47;101120.00;;;12.99;31.74
80640;BME280;69992;60.170;24.692;2023-09-12T06:08:12;101121.10;;;14.11;31.73
80640;BME280;69992;60.170;24.692;2023-09-12T06:10:37;101122.05;;;14.19;31.74
80640;BME280;69992;60.170;24.692;2023-09-12T06:13:03;101115.69;;;13.31;31.77
80640;BME280;69992;60.170;24.692;2023-09-12T06:15:28;101115.38;;;12.46;31.75
80640;BME280;69992;60.170;24.692;2023-09-12T06:17:53;101115.75;;;12.54;31.75
80640;BME280;69992;60.170;24.692;2023-09-12T06:20:19;101113.78;;;12.64;31.77
80640;BME280;69992;60.170;24.692;2023-09-12T06:22:44;101109.69;;;12.78;31.76
80640;BME280;69992;60.170;24.692;2023-09-12T06:25:10;101107.73;;;12.91;31.74
80640;BME280;69992;60.170;24.692;2023-09-12T06:27:35;101108.68;;;13.01;31.74
80640;BME280;69992;60.170;24.692;2023-09-12T06:30:01;101105.68;;;14.09;31.75
80640;BME280;69992;60.170;24.692;2023-09-12T06:32:27;101102.97;;;13.18;31.75
80640;BME280;69992;60.170;24.692;2023-09-12T06:34:52;101099.98;;;13.24;31.76
80640;BME280;69992;60.170;24.692;2023-09-12T06:37:18;101097.42;;;13.30;31.78
80640;BME280;69992;60.170;24.692;2023-09-12T06:39:43;101101.08;;;13.41;31.78
80640;BME280;69992;60.170;24.692;2023-09-12T06:42:09;101103.32;;;13.52;31.76
80640;BME280;69992;60.170;24.692;2023-09-12T06:44:33;101104.03;;;13.53;31.77
80640;BME280;69992;60.170;24.692;2023-09-12T06:46:59;101105.13;;;15.45;31.81
80640;BME280;69992;60.170;24.692;2023-09-12T06:49:24;101099.48;;;13.56;31.82
80640;BME280;69992;60.170;24.692;2023-09-12T06:51:50;101096.98;;;14.66;31.80
80640;BME280;69992;60.170;24.692;2023-09-12T06:54:15;101099.21;;;13.77;31.78
80640;BME280;69992;60.170;24.692;2023-09-12T06:56:41;101102.75;;;13.85;31.79
80640;BME280;69992;60.170;24.692;2023-09-12T06:59:07;101101.91;;;13.93;31.81
80640;BME280;69992;60.170;24.692;2023-09-12T07:01:32;101101.09;;;12.97;31.81
80640;BME280;69992;60.170;24.692;2023-09-12T07:03:57;101101.07;;;14.01;31.83
80640;BME280;69992;60.170;24.692;2023-09-12T07:06:22;101101.66;;;14.17;31.83
80640;BME280;69992;60.170;24.692;2023-09-12T07:08:48;101099.62;;;14.28;31.85
80640;BME280;69992;60.170;24.692;2023-09-12T07:11:14;101104.27;;;14.34;31.88
80640;BME280;69992;60.170;24.692;2023-09-12T07:13:39;101101.98;;;14.45;31.90
80640;BME280;69992;60.170;24.692;2023-09-12T07:16:05;101095.33;;;14.67;31.87
80640;BME280;69992;60.170;24.692;2023-09-12T07:18:30;101092.25;;;14.79;31.85
80640;BME280;69992;60.170;24.692;2023-09-12T07:20:57;101091.70;;;14.85;31.88
80640;BME280;69992;60.170;24.692;2023-09-12T07:23:20;101091.54;;;13.97;31.89
80640;BME280;69992;60.170;24.692;2023-09-12T07:25:46;101090.34;;;15.12;31.87
80640;BME280;69992;60.170;24.692;2023-09-12T07:28:12;101094.27;;;13.35;31.88
80640;BME280;69992;60.170;24.692;2023-09-12T07:30:37;101095.52;;;15.37;31.89
80640;BME280;69992;60.170;24.692;2023-09-12T07:33:02;101096.70;;;15.49;31.88
80640;BME280;69992;60.170;24.692;2023-09-12T07:35:27;101100.68;;;13.66;31.88
80640;BME280;69992;60.170;24.692;2023-09-12T07:37:52;101098.25;;;14.87;31.84
80640;BME280;69992;60.170;24.692;2023-09-12T07:40:18;101098.67;;;13.20;31.81
80640;BME280;69992;60.170;24.692;2023-09-12T07:42:43;101092.56;;;14.41;31.81
80640;BME280;69992;60.170;24.692;2023-09-12T07:45:09;101089.65;;;15.59;31.80
80640;BME280;69992;60.170;24.692;2023-09-12T07:47:34;101086.82;;;15.69;31.83
80640;BME280;69992;60.170;24.692;2023-09-12T07:50:00;101088.63;;;14.88;31.83
80640;BME280;69992;60.170;24.692;2023-09-12T07:52:24;101087.61;;;15.15;31.79
80640;BME280;69992;60.170;24.692;2023-09-12T07:54:50;101088.81;;;15.45;31.75
80640;BME280;69992;60.170;24.692;2023-09-12T07:57:15;101090.07;;;15.54;31.77
80640;BME280;69992;60.170;24.692;2023-09-12T07:59:41;101090.01;;;15.58;31.81
80640;BME280;69992;60.170;24.692;2023-09-12T08:02:06;101092.85;;;15.61;31.82
80640;BME280;69992;60.170;24.692;2023-09-12T08:04:32;101094.46;;;15.64;31.85
80640;BME280;69992;60.170;24.692;2023-09-12T08:06:57;101096.02;;;15.73;31.86
80640;BME280;69992;60.170;24.692;2023-09-12T08:09:23;101098.77;;;15.86;31.85
80640;BME280;69992;60.170;24.692;2023-09-12T08:11:48;101097.99;;;14.98;31.84
80640;BME280;69992;60.170;24.692;2023-09-12T08:14:13;101098.70;;;15.96;31.86
80640;BME280;69992;60.170;24.692;2023-09-12T08:16:39;101093.66;;;15.03;31.89
80640;BME280;69992;60.170;24.692;2023-09-12T08:19:04;101094.44;;;16.12;31.90
80640;BME280;69992;60.170;24.692;2023-09-12T08:21:29;101093.89;;;15.30;31.91
80640;BME280;69992;60.170;24.692;2023-09-12T08:23:55;101095.32;;;16.44;31.90
80640;BME280;69992;60.170;24.692;2023-09-12T08:26:20;101094.17;;;16.53;31.91
80640;BME280;69992;60.170;24.692;2023-09-12T08:28:46;101093.22;;;15.62;31.92
80640;BME280;69992;60.170;24.692;2023-09-12T08:31:11;101094.99;;;14.78;31.90
80640;BME280;69992;60.170;24.692;2023-09-12T08:33:37;101091.63;;;15.80;31.90
80640;BME280;69992;60.170;24.692;2023-09-12T08:36:02;101091.43;;;15.82;31.92
80640;BME280;69992;60.170;24.692;2023-09-12T08:38:28;101092.30;;;16.01;31.87
80640;BME280;69992;60.170;24.692;2023-09-12T08:40:53;101091.24;;;16.79;31.94
80640;BME280;69992;60.170;24.692;2023-09-12T08:43:20;101092.65;;;15.79;31.99
80640;BME280;69992;60.170;24.692;2023-09-12T08:45:45;101096.34;;;15.85;31.99
80640;BME280;69992;60.170;24.692;2023-09-12T08:48:11;101095.08;;;16.07;31.94
80640;BME280;69992;60.170;24.692;2023-09-12T08:50:36;101088.62;;;15.40;31.89
80640;BME280;69992;60.170;24.692;2023-09-12T08:53:02;101080.51;;;15.61;31.87
80640;BME280;69992;60.170;24.692;2023-09-12T08:55:27;101080.57;;;15.62;31.90
80640;BME280;69992;60.170;24.692;2023-09-12T08:57:55;101086.00;;;15.66;31.94
80640;BME280;69992;60.170;24.692;2023-09-12T09:00:19;101087.23;;;15.67;31.97
80640;BME280;69992;60.170;24.692;2023-09-12T09:02:45;101088.86;;;15.80;31.95
80640;BME280;69992;60.170;24.692;2023-09-12T09:05:11;101079.27;;;15.94;31.97
80640;BME280;69992;60.170;24.692;2023-09-12T09:07:36;101071.54;;;16.13;31.92
80640;BME280;69992;60.170;24.692;2023-09-12T09:10:02;101065.45;;;16.24;31.92
80640;BME280;69992;60.170;24.692;2023-09-12T09:12:27;101068.34;;;16.17;31.98
80640;BME280;69992;60.170;24.692;2023-09-12T09:14:51;101068.47;;;16.32;31.99
80640;BME280;69992;60.170;24.692;2023-09-12T09:17:17;101070.11;;;15.41;32.00
80640;BME280;69992;60.170;24.692;2023-09-12T09:19:43;101072.33;;;15.56;32.00
80640;BME280;69992;60.170;24.692;2023-09-12T09:22:07;101072.31;;;16.98;31.92
80640;BME280;69992;60.170;24.692;2023-09-12T09:24:33;101072.58;;;16.43;31.87
80640;BME280;69992;60.170;24.692;2023-09-12T09:26:59;101071.62;;;17.76;31.84
80640;BME280;69992;60.170;24.692;2023-09-12T09:29:25;101070.22;;;16.99;31.84
80640;BME280;69992;60.170;24.692;2023-09-12T09:31:51;101070.97;;;16.10;31.84
80640;BME280;69992;60.170;24.692;2023-09-12T09:34:17;101072.83;;;17.08;31.85
80640;BME280;69992;60.170;24.692;2023-09-12T09:36:41;101066.50;;;18.21;31.86
80640;BME280;69992;60.170;24.692;2023-09-12T09:39:06;101068.26;;;17.40;31.86
80640;BME280;69992;60.170;24.692;2023-09-12T09:41:31;101068.13;;;16.51;31.88
80640;BME280;69992;60.170;24.692;2023-09-12T09:43:57;101068.18;;;17.49;31.89
80640;BME280;69992;60.170;24.692;2023-09-12T09:46:23;101068.73;;;16.46;31.94
80640;BME280;69992;60.170;24.692;2023-09-12T09:48:50;101067.43;;;17.48;31.94
80640;BME280;69992;60.170;24.692;2023-09-12T09:51:14;101068.95;;;16.55;31.95
80640;BME280;69992;60.170;24.692;2023-09-12T09:53:39;101070.76;;;16.94;31.91
80640;BME280;69992;60.170;24.692;2023-09-12T09:56:11;101065.95;;;17.31;31.88
80640;BME280;69992;60.170;24.692;2023-09-12T09:58:29;101065.00;;;18.40;31.85
80640;BME280;69992;60.170;24.692;2023-09-12T10:00:55;101064.73;;;17.69;31.84
80640;BME280;69992;60.170;24.692;2023-09-12T10:03:22;101064.46;;;17.78;31.88
80640;BME280;69992;60.170;24.692;2023-09-12T10:05:46;101063.35;;;17.80;31.90
80640;BME280;69992;60.170;24.692;2023-09-12T10:08:11;101061.33;;;17.78;31.92
80640;BME280;69992;60.170;24.692;2023-09-12T10:10:38;101057.44;;;17.69;31.98
80640;BME280;69992;60.170;24.692;2023-09-12T10:13:03;101054.61;;;17.67;32.01
80640;BME280;69992;60.170;24.692;2023-09-12T10:15:29;101055.40;;;17.66;32.05
80640;BME280;69992;60.170;24.692;2023-09-12T10:17:57;101054.58;;;17.72;32.06
80640;BME280;69992;60.170;24.692;2023-09-12T10:20:21;101054.91;;;16.76;32.07
80640;BME280;69992;60.170;24.692;2023-09-12T10:22:51;101055.28;;;17.73;32.08
80640;BME280;69992;60.170;24.692;2023-09-12T10:25:11;101056.91;;;18.75;32.11
80640;BME280;69992;60.170;24.692;2023-09-12T10:27:35;101056.71;;;18.08;32.07
80640;BME280;69992;60.170;24.692;2023-09-12T10:30:02;101058.83;;;18.41;32.04
80640;BME280;69992;60.170;24.692;2023-09-12T10:32:27;101063.37;;;18.49;32.04
80640;BME280;69992;60.170;24.692;2023-09-12T10:34:52;101066.21;;;18.42;32.06
80640;BME280;69992;60.170;24.692;2023-09-12T10:37:17;101071.07;;;18.22;32.11
80640;BME280;69992;60.170;24.692;2023-09-12T10:39:43;101073.91;;;18.01;32.14
80640;BME280;69992;60.170;24.692;2023-09-12T10:42:08;101076.50;;;17.75;32.20
80640;BME280;69992;60.170;24.692;2023-09-12T10:44:34;101075.28;;;17.54;32.24
80640;BME280;69992;60.170;24.692;2023-09-12T10:46:58;101073.59;;;17.27;32.30
80640;BME280;69992;60.170;24.692;2023-09-12T10:49:25;101071.04;;;17.12;32.38
80640;BME280;69992;60.170;24.692;2023-09-12T10:51:49;101071.73;;;17.00;32.46
80640;BME280;69992;60.170;24.692;2023-09-12T10:54:22;101069.65;;;16.82;32.50
80640;BME280;69992;60.170;24.692;2023-09-12T10:56:41;101078.10;;;16.84;32.51
80640;BME280;69992;60.170;24.692;2023-09-12T10:59:10;101081.10;;;17.77;32.53
80640;BME280;69992;60.170;24.692;2023-09-12T11:01:32;101082.95;;;16.66;32.47
80640;BME280;69992;60.170;24.692;2023-09-12T11:03:57;101078.93;;;16.54;32.47
80640;BME280;69992;60.170;24.692;2023-09-12T11:06:27;101082.35;;;16.42;32.50
80640;BME280;69992;60.170;24.692;2023-09-12T11:11:19;101081.06;;;16.49;32.43
80640;BME280;69992;60.170;24.692;2023-09-12T11:13:39;101078.75;;;16.47;32.42
80640;BME280;69992;60.170;24.692;2023-09-12T11:16:10;101077.07;;;16.38;32.44
80640;BME280;69992;60.170;24.692;2023-09-12T11:18:29;101075.15;;;16.40;32.45
80640;BME280;69992;60.170;24.692;2023-09-12T11:20:59;101078.84;;;17.35;32.47
80640;BME280;69992;60.170;24.692;2023-09-12T11:23:20;101082.23;;;16.26;32.50
80640;BME280;69992;60.170;24.692;2023-09-12T11:25:46;101082.46;;;16.16;32.51
80640;BME280;69992;60.170;24.692;2023-09-12T11:28:11;101083.00;;;16.95;32.54
80640;BME280;69992;60.170;24.692;2023-09-12T11:30:36;101086.21;;;16.83;32.55
80640;BME280;69992;60.170;24.692;2023-09-12T11:33:05;101087.51;;;15.89;32.52
80640;BME280;69992;60.170;24.692;2023-09-12T11:35:29;101087.05;;;16.80;32.48
80640;BME280;69992;60.170;24.692;2023-09-12T11:37:55;101087.82;;;16.74;32.50
80640;BME280;69992;60.170;24.692;2023-09-12T11:40:24;101082.80;;;15.74;32.52
80640;BME280;69992;60.170;24.692;2023-09-12T11:42:44;101083.16;;;15.74;32.50
80640;BME280;69992;60.170;24.692;2023-09-12T11:45:11;101082.15;;;16.62;32.52
80640;BME280;69992;60.170;24.692;2023-09-12T11:47:40;101083.82;;;16.58;32.48
80640;BME280;69992;60.170;24.692;2023-09-12T11:50:01;101082.77;;;16.34;32.52
80640;BME280;69992;60.170;24.692;2023-09-12T11:52:26;101078.86;;;16.22;32.53
80640;BME280;69992;60.170;24.692;2023-09-12T11:54:52;101075.73;;;17.04;32.56
80640;BME280;69992;60.170;24.692;2023-09-12T11:57:17;101071.33;;;15.95;32.60
80640;BME280;69992;60.170;24.692;2023-09-12T11:59:44;101070.43;;;15.91;32.60
80640;BME280;69992;60.170;24.692;2023-09-12T12:02:09;101072.19;;;16.87;32.61
80640;BME280;69992;60.170;24.692;2023-09-12T12:04:33;101073.02;;;15.74;32.66
80640;BME280;69992;60.170;24.692;2023-09-12T12:06:58;101075.15;;;15.76;32.65
80640;BME280;69992;60.170;24.692;2023-09-12T12:09:24;101068.92;;;15.70;32.64
80640;BME280;69992;60.170;24.692;2023-09-12T12:11:49;101071.87;;;15.76;32.63
80640;BME280;69992;60.170;24.692;2023-09-12T12:14:16;101073.42;;;15.84;32.61
80640;BME280;69992;60.170;24.692;2023-09-12T12:16:39;101077.10;;;16.79;32.62
80640;BME280;69992;60.170;24.692;2023-09-12T12:19:05;101070.46;;;15.79;32.59
80640;BME280;69992;60.170;24.692;2023-09-12T12:21:31;101070.30;;;15.70;32.59
80640;BME280;69992;60.170;24.692;2023-09-12T12:23:58;101070.58;;;16.68;32.55
80640;BME280;69992;60.170;24.692;2023-09-12T12:26:21;101074.34;;;16.59;32.57
80640;BME280;69992;60.170;24.692;2023-09-12T12:28:46;101076.85;;;16.52;32.58
80640;BME280;69992;60.170;24.692;2023-09-12T12:31:12;101079.65;;;16.59;32.58
80640;BME280;69992;60.170;24.692;2023-09-12T12:33:37;101078.13;;;16.56;32.58
80640;BME280;69992;60.170;24.692;2023-09-12T12:36:03;101079.35;;;16.47;32.58